createdAt,value
2017-02-10T22:31:30.798Z,18.1
2017-02-10T22:32:11.544Z,18.07
2017-02-10T22:32:52.344Z,18.07
2017-02-10T22:33:33.048Z,18.05
2017-02-10T22:34:13.862Z,18.1
2017-02-10T22:34:54.653Z,18.12
2017-02-10T22:35:35.428Z,18.08
2017-02-10T22:36:16.120Z,18.1
2017-02-10T22:36:56.927Z,18.07
2017-02-10T22:37:37.731Z,18.11
2017-02-10T22:38:18.522Z,18.08
2017-02-10T22:38:59.868Z,18.1
2017-02-10T22:39:40.357Z,18.03
2017-02-10T22:40:21.588Z,18.07
2017-02-10T22:41:02.948Z,18.02
2017-02-10T22:41:45.289Z,17.96
2017-02-10T22:42:25.821Z,18.11
2017-02-10T22:43:06.612Z,18.11
2017-02-10T22:43:52.422Z,18.1
2017-02-10T22:44:33.105Z,18.11
2017-02-10T22:45:13.943Z,18.14
2017-02-10T22:45:54.830Z,18.23
2017-02-10T22:46:35.705Z,18.27
2017-02-10T22:47:17.279Z,18.32
2017-02-10T22:47:57.246Z,18.23
2017-02-10T22:48:38.104Z,18.27
2017-02-10T22:49:18.846Z,18.26
2017-02-10T22:49:59.713Z,18.26
2017-02-10T22:50:40.498Z,18.3
2017-02-10T22:51:21.300Z,18.35
2017-02-10T22:52:02.028Z,18.25
2017-02-10T22:52:42.995Z,18.33
2017-02-10T22:53:23.818Z,18.26
2017-02-10T22:54:05.286Z,18.3
2017-02-10T22:54:45.336Z,18.41
2017-02-10T22:55:26.087Z,18.41
2017-02-10T22:56:06.869Z,18.44
2017-02-10T22:56:47.658Z,18.39
2017-02-10T22:57:28.432Z,18.3
2017-02-10T22:58:09.246Z,18.42
2017-02-10T22:58:49.977Z,18.39
2017-02-10T22:59:31.594Z,18.39
2017-02-10T23:00:12.335Z,18.3
2017-02-10T23:00:53.186Z,18.41
2017-02-10T23:01:33.971Z,18.44
2017-02-10T23:02:14.693Z,18.37
2017-02-10T23:02:55.513Z,18.36
2017-02-10T23:03:37.297Z,18.41
2017-02-10T23:04:17.220Z,18.44
2017-02-10T23:04:57.962Z,18.37
2017-02-10T23:05:38.776Z,18.45
2017-02-10T23:06:19.671Z,18.44
2017-02-10T23:07:01.289Z,18.44
2017-02-10T23:07:41.301Z,18.44
2017-02-10T23:09:42.889Z,18.36
2017-02-10T23:10:23.699Z,18.42
2017-02-10T23:11:04.425Z,18.45
2017-02-10T23:11:45.216Z,18.45
2017-02-10T23:12:25.989Z,18.41
2017-02-10T23:13:06.763Z,18.45
2017-02-10T23:13:48.546Z,18.44
2017-02-10T23:14:29.340Z,18.42
2017-02-10T23:15:10.157Z,18.44
2017-02-10T23:15:51.029Z,18.47
2017-02-10T23:16:31.778Z,18.39
2017-02-10T23:17:12.474Z,18.42
2017-02-10T23:17:53.376Z,18.44
2017-02-10T23:18:34.146Z,18.33
2017-02-10T23:19:14.970Z,18.39
2017-02-10T23:19:55.753Z,18.47
2017-02-10T23:20:36.539Z,18.51
2017-02-10T23:21:17.357Z,18.45
2017-02-10T23:21:58.141Z,18.42
2017-02-10T23:22:38.861Z,18.51
2017-02-10T23:23:19.706Z,18.51
2017-02-10T23:24:00.497Z,18.47
2017-02-10T23:24:41.273Z,18.5
2017-02-10T23:25:22.126Z,18.51
2017-02-10T23:26:03.876Z,18.45
2017-02-10T23:26:43.690Z,18.47
2017-02-10T23:27:24.435Z,18.47
2017-02-10T23:28:05.896Z,18.5
2017-02-10T23:28:47.664Z,18.51
2017-02-10T23:29:29.202Z,18.48
2017-02-10T23:30:10.842Z,18.5
2017-02-10T23:30:50.930Z,18.51
2017-02-10T23:31:31.849Z,18.47
2017-02-10T23:32:12.672Z,18.39
2017-02-10T23:32:53.550Z,18.52
2017-02-10T23:33:34.279Z,18.44
2017-02-10T23:34:15.063Z,18.45
2017-02-10T23:34:55.808Z,18.51
2017-02-10T23:35:36.709Z,18.58
2017-02-10T23:36:17.387Z,18.39
2017-02-10T23:36:58.855Z,18.48
2017-02-10T23:37:38.990Z,18.51
2017-02-10T23:38:19.772Z,18.45
2017-02-10T23:39:00.507Z,18.47
2017-02-10T23:39:41.415Z,18.5
2017-02-10T23:40:22.224Z,18.41
2017-02-10T23:41:03.055Z,18.5
2017-02-10T23:41:43.949Z,18.44
2017-02-10T23:42:24.775Z,18.47
2017-02-10T23:43:05.567Z,18.6
2017-02-10T23:43:46.380Z,18.55
2017-02-10T23:44:27.228Z,18.55
2017-02-10T23:45:07.879Z,18.55
2017-02-10T23:45:48.726Z,18.57
2017-02-10T23:46:29.568Z,18.54
2017-02-10T23:47:10.573Z,18.76
2017-02-10T23:47:51.560Z,19.41
2017-02-10T23:48:32.322Z,20.05
2017-02-10T23:49:13.156Z,20.66
2017-02-10T23:49:53.813Z,21.16
2017-02-10T23:50:34.640Z,21.58
2017-02-10T23:51:15.537Z,22.07
2017-02-10T23:51:56.404Z,22.42
2017-02-10T23:52:37.133Z,22.67
2017-02-10T23:53:17.970Z,22.94
2017-02-10T23:53:59.529Z,23.16
2017-02-10T23:54:40.423Z,23.32
2017-02-10T23:55:21.165Z,23.46
2017-02-10T23:56:02.004Z,23.63
2017-02-10T23:56:42.849Z,23.69
2017-02-10T23:57:23.745Z,23.91
2017-02-10T23:58:04.538Z,23.98
2017-02-10T23:58:45.304Z,24.15
2017-02-10T23:59:26.147Z,24.31
